Time;durP1;ratioP1;P1;durP2;ratioP2;P2;SDS_P1;SDS_P2;PMS_P1;PMS_P2;Temp;Humidity;BMP_temperature;BMP_pressure;BME280_temperature;BME280_humidity;BME280_pressure;Samples;Min_cycle;Max_cycle;Signal;HPM_P1;HPM_P2
2022/05/01 00:01:39;;;;;;;9.57;6.50;;;8.60;99.90;;;;;;5035384;28;20168;-87
2022/05/01 00:04:05;;;;;;;8.70;5.60;;;8.50;99.90;;;;;;5025294;28;20181;-87
2022/05/01 00:06:34;;;;;;;10.33;5.67;;;8.50;99.90;;;;;;5031767;28;20242;-86
2022/05/01 00:09:01;;;;;;;10.20;7.27;;;8.40;99.90;;;;;;5015390;28;20165;-84
2022/05/01 00:11:28;;;;;;;9.30;6.70;;;8.40;99.90;;;;;;5030933;28;20499;-87
2022/05/01 00:13:54;;;;;;;12.27;6.77;;;8.40;99.90;;;;;;5031549;28;20428;-84
2022/05/01 00:16:20;;;;;;;7.70;5.20;;;8.50;99.90;;;;;;5032711;28;20419;-84
2022/05/01 00:18:45;;;;;;;8.80;6.83;;;8.50;99.90;;;;;;5032889;28;20470;-85
2022/05/01 00:21:11;;;;;;;7.37;5.90;;;8.60;99.90;;;;;;5031190;28;20470;-88
2022/05/01 00:23:37;;;;;;;9.00;7.10;;;8.50;99.90;;;;;;5033248;28;20175;-87
2022/05/01 00:26:05;;;;;;;12.50;6.27;;;8.50;99.90;;;;;;5033094;28;20181;-88
2022/05/01 00:28:34;;;;;;;8.20;6.50;;;8.50;99.90;;;;;;5033081;28;20924;-86
2022/05/01 00:31:07;;;;;;;10.90;6.63;;;8.50;99.90;;;;;;5031831;28;20419;-84
2022/05/01 00:36:28;;;;;;;6.57;5.47;;;8.50;99.90;;;;;;5034073;28;20408;-87
2022/05/01 00:38:56;;;;;;;10.80;6.60;;;8.50;99.90;;;;;;5033169;28;20505;-87
2022/05/01 00:41:27;;;;;;;9.90;6.80;;;8.50;99.90;;;;;;5032966;28;20929;-87
2022/05/01 00:44:01;;;;;;;10.00;6.93;;;8.40;99.90;;;;;;5033805;28;20395;-89
2022/05/01 00:46:30;;;;;;;9.20;6.50;;;8.20;99.90;;;;;;5033972;28;20443;-90
2022/05/01 00:48:56;;;;;;;9.40;6.70;;;8.00;99.90;;;;;;5016471;28;20529;-91
2022/05/01 00:51:21;;;;;;;11.93;7.10;;;8.00;99.90;;;;;;5033087;28;20442;-88
2022/05/01 00:53:51;;;;;;;8.73;5.70;;;7.90;99.90;;;;;;5032942;28;20263;-90
2022/05/01 00:56:19;;;;;;;12.13;7.67;;;7.90;99.90;;;;;;5032648;28;20212;-89
2022/05/01 00:58:49;;;;;;;12.63;7.60;;;7.90;99.90;;;;;;5032900;28;21102;-91
2022/05/01 01:01:15;;;;;;;9.23;6.63;;;7.80;99.90;;;;;;5033059;28;20414;-90
2022/05/01 01:03:41;;;;;;;9.40;6.20;;;7.60;99.90;;;;;;5032804;28;20423;-90
2022/05/01 01:06:06;;;;;;;11.03;7.03;;;7.60;99.90;;;;;;5032753;28;20415;-90
2022/05/01 01:08:32;;;;;;;13.13;8.27;;;7.50;99.90;;;;;;5032663;28;20628;-89
2022/05/01 01:11:01;;;;;;;11.50;6.80;;;7.50;99.90;;;;;;5032343;28;20189;-90
2022/05/01 01:13:29;;;;;;;10.50;7.23;;;7.60;99.90;;;;;;5033177;28;20525;-90
2022/05/01 01:15:55;;;;;;;7.17;6.00;;;7.70;99.90;;;;;;5032726;28;20500;-90
2022/05/01 01:18:25;;;;;;;8.47;6.87;;;7.70;99.90;;;;;;5032122;28;20460;-89
2022/05/01 01:20:54;;;;;;;9.27;7.87;;;7.90;99.90;;;;;;5032245;28;20427;-90
2022/05/01 01:23:30;;;;;;;8.83;6.60;;;7.90;99.90;;;;;;5031626;28;20427;-91
2022/05/01 01:25:56;;;;;;;11.83;6.93;;;7.90;99.90;;;;;;5032371;28;20794;-92
2022/05/01 01:28:22;;;;;;;9.10;6.67;;;7.90;99.90;;;;;;5032802;28;20423;-91
2022/05/01 01:33:36;;;;;;;11.57;7.53;;;7.80;99.90;;;;;;5033600;28;20182;-90
2022/05/01 01:36:21;;;;;;;9.80;7.10;;;7.70;99.90;;;;;;5032782;28;20472;-92
2022/05/01 01:38:46;;;;;;;8.37;5.50;;;7.70;99.90;;;;;;5032017;28;20473;-89
2022/05/01 01:41:14;;;;;;;11.80;7.27;;;7.60;99.90;;;;;;5031767;28;20429;-88
2022/05/01 01:43:42;;;;;;;10.77;6.73;;;7.70;99.90;;;;;;5032800;28;20266;-87
2022/05/01 01:46:08;;;;;;;7.87;6.17;;;7.70;99.90;;;;;;5033156;28;20414;-88
2022/05/01 01:48:33;;;;;;;15.00;6.57;;;7.80;99.90;;;;;;5015119;28;20553;-88
2022/05/01 01:51:01;;;;;;;12.70;7.23;;;7.90;99.90;;;;;;5015154;28;20233;-88
2022/05/01 01:53:29;;;;;;;12.10;6.90;;;7.90;99.90;;;;;;5032876;28;20266;-87
2022/05/01 01:55:56;;;;;;;9.50;7.10;;;8.00;99.90;;;;;;5014889;28;20433;-87
2022/05/01 01:58:21;;;;;;;9.60;6.90;;;8.00;99.90;;;;;;5032662;28;20455;-88
2022/05/01 02:00:47;;;;;;;13.27;6.33;;;8.10;99.90;;;;;;5015055;28;20431;-88
2022/05/01 02:03:15;;;;;;;7.77;6.07;;;8.10;99.90;;;;;;5015230;28;20211;-88
2022/05/01 02:05:41;;;;;;;13.90;5.57;;;8.10;99.90;;;;;;5031497;28;20172;-88
2022/05/01 02:08:08;;;;;;;12.10;7.77;;;8.10;99.90;;;;;;5031515;28;20969;-89
2022/05/01 02:10:35;;;;;;;11.30;5.47;;;8.20;99.90;;;;;;5031125;28;20431;-88
2022/05/01 02:13:00;;;;;;;10.03;6.30;;;8.10;99.90;;;;;;5032553;28;20426;-87
2022/05/01 02:15:32;;;;;;;11.73;6.80;;;8.20;99.90;;;;;;5014796;28;20429;-87
2022/05/01 02:17:59;;;;;;;13.13;7.53;;;8.20;99.90;;;;;;5014711;28;20175;-87
2022/05/01 02:20:26;;;;;;;10.33;7.50;;;8.20;99.90;;;;;;5014689;28;20513;-87
2022/05/01 02:22:55;;;;;;;8.93;5.63;;;8.20;99.90;;;;;;5032434;28;20486;-87
2022/05/01 02:25:23;;;;;;;9.87;7.23;;;8.20;99.90;;;;;;5030791;28;20419;-88
2022/05/01 02:27:49;;;;;;;8.73;6.60;;;8.20;99.90;;;;;;5032327;28;20752;-87
2022/05/01 02:30:15;;;;;;;9.90;7.37;;;8.20;99.90;;;;;;5032477;28;20430;-87
2022/05/01 02:32:41;;;;;;;9.50;7.43;;;8.20;99.90;;;;;;5031267;28;20183;-88
2022/05/01 02:35:08;;;;;;;10.23;7.00;;;8.20;99.90;;;;;;5036213;28;20411;-88
2022/05/01 02:37:35;;;;;;;14.37;8.20;;;8.10;99.90;;;;;;5036126;28;20172;-88
2022/05/01 02:40:01;;;;;;;9.70;6.37;;;8.00;99.90;;;;;;5034505;28;20574;-88
2022/05/01 02:42:26;;;;;;;10.13;6.37;;;8.00;99.90;;;;;;5036389;28;20419;-89
2022/05/01 02:44:52;;;;;;;9.63;5.43;;;8.00;99.90;;;;;;5035047;28;20429;-89
2022/05/01 02:47:17;;;;;;;7.83;5.70;;;8.00;99.90;;;;;;5035952;28;20297;-88
2022/05/01 02:49:43;;;;;;;7.47;6.00;;;8.00;99.90;;;;;;5018227;28;20181;-88
2022/05/01 02:52:11;;;;;;;8.13;5.23;;;8.10;99.90;;;;;;5036093;28;20173;-89
2022/05/01 02:54:37;;;;;;;9.47;6.10;;;8.10;99.90;;;;;;5034416;28;20352;-88
2022/05/01 02:57:03;;;;;;;10.93;5.93;;;8.10;99.90;;;;;;5035945;28;20468;-88
2022/05/01 02:59:29;;;;;;;7.90;6.13;;;8.10;99.90;;;;;;5034693;28;20219;-88
2022/05/01 03:01:55;;;;;;;8.33;5.57;;;8.10;99.90;;;;;;5034589;28;20527;-89
2022/05/01 03:04:21;;;;;;;8.27;5.90;;;8.10;99.90;;;;;;5035677;28;20278;-88
2022/05/01 03:06:47;;;;;;;8.80;5.03;;;8.10;99.90;;;;;;5034427;28;20462;-89
2022/05/01 03:09:12;;;;;;;11.00;6.20;;;8.10;99.90;;;;;;5034367;28;20183;-89
2022/05/01 03:11:38;;;;;;;7.00;6.00;;;8.10;99.90;;;;;;5035354;28;20171;-88
2022/05/01 03:14:04;;;;;;;16.90;6.17;;;8.10;99.90;;;;;;5034278;28;20175;-88
2022/05/01 03:16:29;;;;;;;10.23;5.17;;;8.00;99.90;;;;;;5035433;28;20173;-88
2022/05/01 03:24:24;;;;;;;8.80;6.47;;;8.10;99.90;;;;;;5035057;28;20751;-87
2022/05/01 03:26:49;;;;;;;7.50;4.63;;;8.10;99.90;;;;;;5033959;28;20418;-88
2022/05/01 03:29:16;;;;;;;10.70;5.70;;;8.10;99.90;;;;;;5033986;28;20177;-89
2022/05/01 03:31:41;;;;;;;9.90;5.60;;;8.10;99.90;;;;;;5035328;28;20547;-89
2022/05/01 03:34:07;;;;;;;8.77;5.80;;;8.10;99.90;;;;;;5034387;28;20404;-89
2022/05/01 03:36:33;;;;;;;11.20;5.90;;;8.10;99.90;;;;;;5034165;28;20652;-89
2022/05/01 03:38:59;;;;;;;9.10;5.67;;;8.10;99.90;;;;;;5034287;28;20510;-89
2022/05/01 03:41:26;;;;;;;7.20;5.00;;;8.10;99.90;;;;;;5033788;28;20180;-89
2022/05/01 03:43:54;;;;;;;10.20;6.07;;;8.00;99.90;;;;;;5034129;28;20184;-89
2022/05/01 03:46:22;;;;;;;11.20;6.10;;;8.10;99.90;;;;;;5016362;28;20421;-88
2022/05/01 03:48:48;;;;;;;12.20;5.87;;;8.00;99.90;;;;;;5017185;28;20491;-89
2022/05/01 03:51:13;;;;;;;6.63;5.50;;;8.10;99.90;;;;;;5035141;28;20498;-88
2022/05/01 03:53:39;;;;;;;10.27;5.60;;;8.10;99.90;;;;;;5017208;28;20175;-89
2022/05/01 03:56:05;;;;;;;11.63;5.70;;;8.00;99.90;;;;;;5034467;28;20723;-88
2022/05/01 03:58:33;;;;;;;11.63;4.87;;;8.00;99.90;;;;;;5033257;28;20286;-89
2022/05/01 04:01:01;;;;;;;7.53;4.47;;;8.00;99.90;;;;;;5034610;28;20433;-88
2022/05/01 04:03:30;;;;;;;9.47;4.23;;;8.00;99.90;;;;;;5034627;28;20521;-88
2022/05/01 04:05:55;;;;;;;6.17;4.80;;;8.10;99.90;;;;;;5016993;28;20513;-89
2022/05/01 04:08:21;;;;;;;8.03;4.90;;;8.00;99.90;;;;;;5034604;28;20998;-87
2022/05/01 04:10:47;;;;;;;11.10;4.50;;;8.10;99.90;;;;;;5034212;28;20561;-88
2022/05/01 04:13:13;;;;;;;10.43;4.60;;;8.10;99.90;;;;;;5033204;28;20421;-88
2022/05/01 04:15:39;;;;;;;7.60;3.97;;;8.10;99.90;;;;;;5034389;28;20180;-88
2022/05/01 04:18:05;;;;;;;7.07;4.23;;;8.20;99.90;;;;;;5032944;28;20418;-88
2022/05/01 04:20:32;;;;;;;7.97;4.60;;;8.20;99.90;;;;;;5034078;28;20166;-88
2022/05/01 04:22:58;;;;;;;6.97;4.70;;;8.20;99.90;;;;;;5032957;28;20544;-88
2022/05/01 04:25:26;;;;;;;7.63;4.00;;;8.20;99.90;;;;;;5016205;28;20788;-89
2022/05/01 04:27:57;;;;;;;5.70;3.27;;;8.20;99.90;;;;;;5033067;28;20180;-90
2022/05/01 04:30:25;;;;;;;8.33;3.50;;;8.20;99.90;;;;;;5033040;28;20477;-88
2022/05/01 04:32:51;;;;;;;8.03;4.07;;;8.20;99.90;;;;;;5016351;28;20447;-89
2022/05/01 04:35:28;;;;;;;8.80;4.50;;;8.20;99.90;;;;;;5033988;28;20414;-88
2022/05/01 04:37:56;;;;;;;9.23;4.20;;;8.20;99.90;;;;;;5032640;28;20180;-87
2022/05/01 04:40:21;;;;;;;5.83;3.70;;;8.30;99.90;;;;;;5033479;28;20478;-88
2022/05/01 04:42:47;;;;;;;8.53;3.87;;;8.30;99.90;;;;;;5033732;28;20416;-87
2022/05/01 04:45:13;;;;;;;6.20;3.80;;;8.30;99.90;;;;;;5032592;28;20214;-88
2022/05/01 04:47:39;;;;;;;5.83;3.60;;;8.30;99.90;;;;;;5033449;28;20215;-88
2022/05/01 04:50:05;;;;;;;7.97;3.80;;;8.30;99.90;;;;;;5033577;28;20427;-89
2022/05/01 04:52:31;;;;;;;7.27;4.17;;;8.30;99.90;;;;;;5032258;28;20424;-88
2022/05/01 04:54:56;;;;;;;9.03;4.10;;;8.40;99.90;;;;;;5015504;28;20422;-89
2022/05/01 04:57:22;;;;;;;5.17;3.30;;;8.50;99.90;;;;;;5015576;28;20179;-88
2022/05/01 04:59:48;;;;;;;4.23;3.10;;;8.50;99.90;;;;;;5033466;28;20242;-88
2022/05/01 05:02:14;;;;;;;13.30;3.90;;;8.50;99.90;;;;;;5032141;28;20584;-88
2022/05/01 05:04:42;;;;;;;6.27;4.43;;;8.50;99.90;;;;;;5033337;28;20427;-88
2022/05/01 05:07:09;;;;;;;4.73;3.80;;;8.50;99.90;;;;;;5033333;28;20250;-87
2022/05/01 05:09:55;;;;;;;7.90;3.10;;;8.50;99.90;;;;;;5031656;28;20423;-88
2022/05/01 05:12:22;;;;;;;7.37;4.73;;;8.50;99.90;;;;;;5015566;28;20492;-87
2022/05/01 05:14:51;;;;;;;4.30;2.80;;;8.30;99.90;;;;;;5033378;28;20415;-88
2022/05/01 05:17:18;;;;;;;6.73;3.00;;;8.40;99.90;;;;;;5033012;28;20419;-88
2022/05/01 05:19:44;;;;;;;11.80;3.90;;;8.40;99.90;;;;;;5033219;28;20469;-86
2022/05/01 05:22:09;;;;;;;8.13;3.00;;;8.40;99.90;;;;;;5015472;28;20592;-88
2022/05/01 05:24:35;;;;;;;8.63;3.43;;;8.40;99.90;;;;;;5033072;28;20424;-89
2022/05/01 05:27:01;;;;;;;5.17;3.30;;;8.50;99.90;;;;;;5033321;28;20593;-88
2022/05/01 05:29:26;;;;;;;7.50;3.80;;;8.50;99.90;;;;;;5015263;28;20519;-88
2022/05/01 05:31:58;;;;;;;5.50;2.20;;;8.50;99.90;;;;;;5033177;28;20172;-89
2022/05/01 05:34:23;;;;;;;4.87;2.40;;;8.50;99.90;;;;;;5031506;28;20553;-88
2022/05/01 05:36:49;;;;;;;5.50;3.30;;;8.70;99.90;;;;;;5032961;28;20493;-89
2022/05/01 05:39:14;;;;;;;10.13;3.83;;;8.80;99.90;;;;;;5032556;28;20266;-88
2022/05/01 05:41:43;;;;;;;5.17;2.57;;;8.90;99.90;;;;;;5033056;28;20637;-88
2022/05/01 05:44:09;;;;;;;7.30;2.90;;;8.90;99.90;;;;;;5031848;28;20625;-89
2022/05/01 05:46:34;;;;;;;7.63;2.77;;;8.80;99.90;;;;;;5032630;28;20468;-88
2022/05/01 05:49:00;;;;;;;7.77;2.67;;;8.90;99.90;;;;;;5032595;28;20428;-88
2022/05/01 05:51:25;;;;;;;5.70;3.00;;;9.00;99.90;;;;;;5015155;28;20692;-88
2022/05/01 05:53:52;;;;;;;5.00;3.40;;;8.90;99.90;;;;;;5031524;28;20265;-88
2022/05/01 05:56:18;;;;;;;6.33;3.93;;;8.90;99.90;;;;;;5032253;28;20175;-88
2022/05/01 05:58:44;;;;;;;6.50;2.60;;;8.90;99.90;;;;;;5032806;28;20462;-90
2022/05/01 06:01:10;;;;;;;5.30;2.40;;;9.00;99.90;;;;;;5033236;28;20427;-88
2022/05/01 06:03:36;;;;;;;10.10;3.63;;;9.00;99.90;;;;;;5032059;28;20215;-90
2022/05/01 06:06:02;;;;;;;7.97;3.00;;;9.10;99.90;;;;;;5032171;28;20269;-89
2022/05/01 06:08:27;;;;;;;6.43;2.73;;;9.00;99.90;;;;;;5034457;28;20451;-89
2022/05/01 06:10:53;;;;;;;6.50;2.73;;;9.10;99.90;;;;;;5035677;28;20423;-90
2022/05/01 06:13:18;;;;;;;5.50;2.47;;;9.10;99.90;;;;;;5036887;28;20249;-90
2022/05/01 06:15:44;;;;;;;5.47;2.10;;;9.20;99.90;;;;;;5035721;28;20174;-89
2022/05/01 06:18:13;;;;;;;4.00;2.30;;;9.20;99.90;;;;;;5035740;28;20634;-89
2022/05/01 06:20:38;;;;;;;4.20;2.10;;;9.40;99.90;;;;;;5035525;28;20174;-88
2022/05/01 06:23:04;;;;;;;7.73;2.63;;;9.60;99.90;;;;;;5035312;28;20423;-89
2022/05/01 06:25:29;;;;;;;3.50;2.20;;;9.80;99.90;;;;;;5018602;28;20178;-89
2022/05/01 06:27:55;;;;;;;3.73;2.63;;;10.40;99.90;;;;;;5036582;28;20216;-90
2022/05/01 06:30:21;;;;;;;4.33;2.70;;;11.50;1.00;;;;;;5036408;28;20167;-89
2022/05/01 06:32:47;;;;;;;7.10;2.13;;;11.40;99.90;;;;;;5034821;28;20656;-88
2022/05/01 06:35:14;;;;;;;4.40;1.73;;;11.60;9.00;;;;;;5036022;28;20645;-89
2022/05/01 06:37:39;;;;;;;4.23;1.47;;;13.10;71.30;;;;;;5018424;28;20421;-88
2022/05/01 06:40:06;;;;;;;5.60;1.60;;;14.30;1.00;;;;;;5035401;28;20942;-88
2022/05/01 06:42:33;;;;;;;4.53;1.80;;;14.00;1.00;;;;;;5035887;28;20596;-87
2022/05/01 06:44:59;;;;;;;2.10;1.30;;;15.70;99.90;;;;;;5034646;28;20474;-88
2022/05/01 06:47:25;;;;;;;3.50;1.13;;;16.90;99.90;;;;;;5017961;28;20462;-87
2022/05/01 06:49:51;;;;;;;3.23;0.70;;;17.70;99.90;;;;;;5035815;28;20473;-87
2022/05/01 06:52:23;;;;;;;3.13;1.20;;;17.60;99.90;;;;;;5034446;28;20703;-87
2022/05/01 06:54:52;;;;;;;5.50;1.23;;;17.40;90.00;;;;;;5033804;28;20438;-88
2022/05/01 06:57:18;;;;;;;5.23;1.07;;;18.70;60.40;;;;;;5034150;28;20423;-87
2022/05/01 06:59:43;;;;;;;1.37;0.90;;;19.20;27.30;;;;;;5035263;28;20468;-87
2022/05/01 07:02:09;;;;;;;2.87;1.17;;;19.20;9.90;;;;;;5035093;28;20185;-87
2022/05/01 07:04:34;;;;;;;2.50;0.80;;;19.60;4.20;;;;;;5038030;28;20280;-88
2022/05/01 07:07:00;;;;;;;2.53;1.00;;;19.60;1.00;;;;;;5017461;28;20529;-88
2022/05/01 07:09:25;;;;;;;2.37;0.67;;;19.70;1.00;;;;;;5017271;28;20188;-88
2022/05/01 07:11:51;;;;;;;4.10;1.73;;;19.90;1.00;;;;;;5035331;28;20183;-87
2022/05/01 07:14:16;;;;;;;3.13;1.37;;;20.20;1.00;;;;;;5034792;28;20168;-86
2022/05/01 07:16:42;;;;;;;2.83;0.77;;;20.20;1.00;;;;;;5034662;28;20173;-93
2022/05/01 07:19:07;;;;;;;3.13;0.60;;;19.80;1.00;;;;;;5037956;28;20306;-89
2022/05/01 07:21:33;;;;;;;1.53;1.00;;;20.60;1.00;;;;;;5024038;28;20264;-91
2022/05/01 07:24:05;;;;;;;2.80;0.97;;;21.00;1.00;;;;;;5037030;28;20212;-86
2022/05/01 07:26:33;;;;;;;3.40;1.27;;;21.90;1.00;;;;;;5055948;28;20173;-91
2022/05/01 07:29:02;;;;;;;3.80;0.93;;;21.50;1.00;;;;;;5055217;28;20424;-92
2022/05/01 07:31:28;;;;;;;2.60;1.00;;;21.30;1.00;;;;;;5055144;28;20424;-90
2022/05/01 07:33:54;;;;;;;2.83;0.83;;;21.90;1.00;;;;;;5055089;28;20419;-90
2022/05/01 07:36:19;;;;;;;5.13;1.03;;;21.50;1.00;;;;;;5054697;28;20474;-91
2022/05/01 07:38:49;;;;;;;1.60;1.10;;;21.70;1.00;;;;;;5036215;28;20206;-90
2022/05/01 07:41:16;;;;;;;3.00;1.10;;;22.10;1.00;;;;;;5036436;28;20190;-91
2022/05/01 07:43:43;;;;;;;5.00;1.30;;;22.20;1.00;;;;;;5054095;28;20415;-90
2022/05/01 07:46:08;;;;;;;3.10;0.80;;;22.20;1.00;;;;;;5054340;28;20428;-89
2022/05/01 07:48:38;;;;;;;4.30;1.13;;;21.90;1.00;;;;;;5053936;28;20460;-91
2022/05/01 07:51:03;;;;;;;4.33;1.40;;;20.30;1.00;;;;;;5054822;28;20169;-89
2022/05/01 07:53:29;;;;;;;4.30;1.00;;;19.50;1.00;;;;;;5054085;28;20412;-91
2022/05/01 07:55:56;;;;;;;3.03;1.03;;;19.30;1.00;;;;;;5054663;28;20166;-91
2022/05/01 07:58:22;;;;;;;3.17;1.00;;;17.80;1.00;;;;;;5037127;28;20543;-91
2022/05/01 08:00:48;;;;;;;3.87;1.90;;;17.00;1.00;;;;;;5054685;28;20789;-90
2022/05/01 08:05:58;;;;;;;1.67;0.67;;;17.20;1.00;;;;;;5054846;28;20226;-90
2022/05/01 08:08:24;;;;;;;5.03;1.50;;;18.90;1.00;;;;;;5054515;28;20762;-90
2022/05/01 08:10:50;;;;;;;3.20;0.70;;;19.00;1.00;;;;;;5036480;28;20426;-90
2022/05/01 08:13:16;;;;;;;2.10;0.70;;;19.00;1.00;;;;;;5054568;28;20759;-89
2022/05/01 08:15:41;;;;;;;2.37;0.60;;;19.20;1.00;;;;;;5054626;28;20235;-90
2022/05/01 08:21:07;;;;;;;3.60;0.77;;;18.70;1.00;;;;;;5054374;28;20605;-89
2022/05/01 08:23:34;;;;;;;4.37;1.37;;;19.30;1.00;;;;;;5054204;28;20412;-90
2022/05/01 08:26:06;;;;;;;2.80;0.87;;;21.30;1.00;;;;;;5036600;28;20435;-89
2022/05/01 08:28:36;;;;;;;1.63;0.40;;;22.30;1.00;;;;;;5054536;28;20820;-86
2022/05/01 08:31:02;;;;;;;1.77;0.40;;;22.80;1.00;;;;;;5053904;28;20442;-92
2022/05/01 08:33:28;;;;;;;1.63;0.50;;;23.60;1.00;;;;;;5054376;28;20420;-90
2022/05/01 08:35:53;;;;;;;3.97;0.80;;;23.30;1.00;;;;;;5054418;28;20423;-90
2022/05/01 08:38:20;;;;;;;2.23;0.40;;;23.60;1.00;;;;;;5054128;28;20174;-87
2022/05/01 08:40:48;;;;;;;2.60;0.50;;;23.60;1.00;;;;;;5053961;28;20692;-91
2022/05/01 08:43:24;;;;;;;2.20;0.57;;;23.40;1.00;;;;;;5054076;28;20470;-90
2022/05/01 08:45:53;;;;;;;1.73;0.87;;;22.90;1.00;;;;;;5053955;28;20798;-91
2022/05/01 08:48:44;;;;;;;2.20;0.83;;;23.00;1.00;;;;;;5053847;28;20495;-91
2022/05/01 08:51:10;;;;;;;1.73;0.60;;;23.00;1.00;;;;;;5053889;28;20977;-90
2022/05/01 08:53:37;;;;;;;1.00;0.43;;;22.80;1.00;;;;;;5053312;28;20408;-90
2022/05/01 08:56:06;;;;;;;3.43;1.00;;;22.90;1.00;;;;;;5053929;28;20417;-91
2022/05/01 08:58:34;;;;;;;1.10;0.50;;;23.30;1.00;;;;;;5053781;28;20448;-91
2022/05/01 09:00:59;;;;;;;2.77;0.70;;;23.30;1.00;;;;;;5053835;28;20439;-91
2022/05/01 09:03:25;;;;;;;2.87;1.17;;;22.80;1.00;;;;;;5053693;28;20891;-92
2022/05/01 09:05:51;;;;;;;1.10;0.40;;;22.10;1.00;;;;;;5053872;28;20252;-90
2022/05/01 09:08:17;;;;;;;2.50;0.67;;;21.90;1.00;;;;;;5053614;28;20744;-91
2022/05/01 09:10:44;;;;;;;2.00;0.60;;;22.50;1.00;;;;;;5053382;28;20423;-91
2022/05/01 09:13:11;;;;;;;1.47;0.50;;;23.30;1.00;;;;;;5053600;28;20409;-90
2022/05/01 09:15:43;;;;;;;2.30;0.50;;;22.60;1.00;;;;;;5036121;28;20499;-91
2022/05/01 09:18:14;;;;;;;2.10;0.30;;;21.60;1.00;;;;;;5053883;28;20415;-92
2022/05/01 09:21:07;;;;;;;1.17;0.30;;;21.10;1.00;;;;;;5053583;28;20424;-91
2022/05/01 09:23:40;;;;;;;2.27;0.60;;;20.20;1.00;;;;;;5053486;28;20412;-90
2022/05/01 09:26:08;;;;;;;1.30;0.37;;;21.50;1.00;;;;;;5053427;28;20420;-90
2022/05/01 09:28:34;;;;;;;1.73;0.30;;;22.10;1.00;;;;;;5053426;28;20428;-90
2022/05/01 09:31:00;;;;;;;1.50;0.57;;;22.30;1.00;;;;;;5053448;28;20416;-90
2022/05/01 09:33:25;;;;;;;2.10;0.60;;;22.20;1.00;;;;;;5053129;28;20426;-89
2022/05/01 09:35:51;;;;;;;1.27;0.33;;;21.80;1.00;;;;;;5053251;28;20173;-90
2022/05/01 09:38:25;;;;;;;1.87;0.50;;;21.50;1.00;;;;;;5053456;28;20170;-91
2022/05/01 09:40:57;;;;;;;3.77;1.00;;;20.60;1.00;;;;;;5053493;28;20712;-90
2022/05/01 09:43:46;;;;;;;2.47;1.27;;;21.90;1.00;;;;;;5054646;28;20415;-91
2022/05/01 09:46:14;;;;;;;1.83;1.00;;;23.00;1.00;;;;;;5057336;28;20417;-89
2022/05/01 09:48:42;;;;;;;3.07;0.87;;;22.80;1.00;;;;;;5056207;28;20427;-90
2022/05/01 09:51:18;;;;;;;2.50;1.17;;;22.10;1.00;;;;;;5056159;28;20442;-90
2022/05/01 09:53:44;;;;;;;2.33;1.00;;;21.90;1.00;;;;;;5055459;28;20418;-90
2022/05/01 09:56:10;;;;;;;1.57;1.10;;;21.90;1.00;;;;;;5037804;28;20978;-90
2022/05/01 09:58:40;;;;;;;2.00;0.93;;;21.70;1.00;;;;;;5055892;28;20487;-91
2022/05/01 10:01:16;;;;;;;3.40;0.80;;;22.10;1.00;;;;;;5056157;28;20264;-90
2022/05/01 10:03:46;;;;;;;2.40;1.03;;;22.60;1.00;;;;;;5037958;28;20473;-92
2022/05/01 10:06:16;;;;;;;1.07;0.97;;;22.70;1.00;;;;;;5038196;28;20435;-92
2022/05/01 10:08:43;;;;;;;2.67;1.20;;;22.00;1.00;;;;;;5037679;28;20424;-92
2022/05/01 10:11:14;;;;;;;1.80;0.70;;;21.10;1.00;;;;;;5055561;28;20462;-90
2022/05/01 10:13:40;;;;;;;2.03;1.00;;;22.40;1.00;;;;;;5038091;28;20947;-93
2022/05/01 10:16:10;;;;;;;1.23;0.70;;;23.70;1.00;;;;;;5055664;28;20467;-92
2022/05/01 10:18:36;;;;;;;1.90;0.93;;;24.10;1.00;;;;;;5055398;28;20462;-91
2022/05/01 10:21:04;;;;;;;1.27;0.50;;;24.10;1.00;;;;;;5055621;28;20485;-88
2022/05/01 10:23:30;;;;;;;2.47;0.80;;;23.50;1.00;;;;;;5036672;28;20519;-91
2022/05/01 10:26:00;;;;;;;1.80;0.87;;;24.20;1.00;;;;;;5055458;28;20449;-88
2022/05/01 10:28:47;;;;;;;1.50;0.63;;;23.90;1.00;;;;;;5037515;28;20420;-91
2022/05/01 10:34:25;;;;;;;0.90;0.40;;;19.50;1.00;;;;;;5055470;28;20419;-89
2022/05/01 10:37:15;;;;;;;5.70;0.80;;;18.60;1.00;;;;;;5055075;28;20786;-90
2022/05/01 10:39:42;;;;;;;1.47;0.57;;;18.50;1.00;;;;;;5054863;28;20467;-91
2022/05/01 10:42:08;;;;;;;0.97;0.60;;;17.90;1.00;;;;;;5031904;28;20500;-88
2022/05/01 10:44:36;;;;;;;2.00;0.70;;;17.90;1.00;;;;;;5055586;28;20458;-90
2022/05/01 10:47:14;;;;;;;4.70;1.70;;;18.90;1.00;;;;;;5001589;28;1018166;-88
2022/05/01 10:49:41;;;;;;;3.33;0.90;;;19.80;1.00;;;;;;5055913;28;20595;-89
2022/05/01 10:52:17;;;;;;;2.17;1.20;;;19.60;1.00;;;;;;5037922;28;20467;-89
2022/05/01 10:55:04;;;;;;;1.33;0.40;;;19.10;1.00;;;;;;5037146;28;20439;-89
2022/05/01 10:57:30;;;;;;;1.30;0.73;;;18.50;1.00;;;;;;5038086;28;20426;-89
2022/05/01 11:00:06;;;;;;;1.40;0.80;;;18.20;1.00;;;;;;5056099;28;20539;-91
2022/05/01 11:02:48;;;;;;;1.73;0.70;;;18.10;1.00;;;;;;5039661;28;20475;-94
2022/05/01 11:05:45;;;;;;;1.20;0.50;;;18.30;1.00;;;;;;5039536;28;20477;-94
2022/05/01 11:08:23;;;;;;;3.10;0.30;;;18.20;1.00;;;;;;5039386;28;20431;-93
2022/05/01 11:10:51;;;;;;;1.87;0.60;;;17.80;1.00;;;;;;5039762;28;20422;-93
2022/05/01 11:13:18;;;;;;;1.53;0.47;;;18.10;1.00;;;;;;5039591;28;20436;-93
2022/05/01 11:15:47;;;;;;;1.10;0.50;;;18.40;1.00;;;;;;5041494;28;20795;-95
2022/05/01 11:18:13;;;;;;;2.10;0.70;;;18.50;1.00;;;;;;5040448;28;20477;-93
2022/05/01 11:20:39;;;;;;;1.03;0.30;;;19.10;1.00;;;;;;5038586;28;20476;-91
2022/05/01 11:23:34;;;;;;;1.60;0.50;;;18.60;1.00;;;;;;5038198;28;20423;-91
2022/05/01 11:26:15;;;;;;;1.00;0.30;;;17.70;1.00;;;;;;5038512;28;20517;-91
2022/05/01 11:28:48;;;;;;;1.43;0.40;;;17.70;1.00;;;;;;5038143;28;21072;-90
2022/05/01 11:31:38;;;;;;;1.10;0.43;;;17.50;1.00;;;;;;5038371;28;20471;-91
2022/05/01 11:34:16;;;;;;;1.50;0.97;;;17.40;1.00;;;;;;5041474;28;20421;-92
2022/05/01 11:36:54;;;;;;;2.37;0.50;;;17.20;1.00;;;;;;5057657;28;20494;-91
2022/05/01 11:39:20;;;;;;;2.20;0.53;;;17.40;1.00;;;;;;5041055;28;20468;-91
2022/05/01 11:41:48;;;;;;;1.23;0.37;;;17.10;1.00;;;;;;5040093;28;20408;-92
2022/05/01 11:44:24;;;;;;;1.33;0.40;;;17.40;1.00;;;;;;5040452;28;20434;-93
2022/05/01 11:46:51;;;;;;;2.30;0.50;;;18.20;1.00;;;;;;5035808;28;20450;-93
2022/05/01 11:49:16;;;;;;;2.00;0.60;;;18.50;1.00;;;;;;5037497;28;20426;-90
2022/05/01 11:51:45;;;;;;;2.17;0.57;;;18.30;1.00;;;;;;5035491;28;20432;-91
2022/05/01 11:54:11;;;;;;;3.53;0.50;;;18.60;1.00;;;;;;5035077;28;20523;-93
2022/05/01 12:02:27;;;;;;;1.00;0.50;;;17.70;1.00;;;;;;5041100;28;20395;-93
2022/05/01 12:05:05;;;;;;;2.73;0.80;;;17.70;1.00;;;;;;5038787;28;20486;-93
2022/05/01 12:07:31;;;;;;;0.90;0.50;;;17.50;1.00;;;;;;5035524;28;20418;-94
2022/05/01 12:09:57;;;;;;;1.40;0.40;;;17.30;1.00;;;;;;5035316;28;20789;-89
2022/05/01 12:12:30;;;;;;;1.27;0.37;;;17.30;1.00;;;;;;5035278;28;20417;-89
2022/05/01 12:14:58;;;;;;;3.27;0.57;;;17.40;1.00;;;;;;5034776;28;20420;-89
2022/05/01 12:17:24;;;;;;;2.10;0.30;;;17.20;1.00;;;;;;5034570;28;20437;-90
2022/05/01 12:19:51;;;;;;;1.50;0.30;;;17.20;1.00;;;;;;5036500;28;20471;-88
2022/05/01 12:22:23;;;;;;;2.70;0.53;;;17.10;1.00;;;;;;5035366;28;20200;-89
2022/05/01 12:24:49;;;;;;;4.83;0.73;;;17.30;1.00;;;;;;5035462;28;20828;-88
2022/05/01 12:27:18;;;;;;;3.17;0.77;;;17.00;1.00;;;;;;5035612;28;20961;-89
2022/05/01 12:29:49;;;;;;;2.63;0.87;;;17.30;1.00;;;;;;5036424;28;20194;-93
2022/05/01 12:32:17;;;;;;;0.97;0.40;;;17.30;1.00;;;;;;5036875;28;20459;-90
2022/05/01 12:34:52;;;;;;;3.83;0.77;;;17.10;1.00;;;;;;5035864;28;20423;-91
2022/05/01 12:37:19;;;;;;;1.23;0.50;;;17.30;1.00;;;;;;5034732;28;20413;-89
2022/05/01 12:40:00;;;;;;;2.50;0.97;;;17.20;1.00;;;;;;5034292;28;20471;-89
2022/05/01 12:45:18;;;;;;;1.90;0.80;;;17.20;1.00;;;;;;5018129;28;20433;-87
2022/05/01 12:47:52;;;;;;;2.33;0.80;;;17.60;1.00;;;;;;5012956;28;20516;-90
2022/05/01 12:50:38;;;;;;;1.37;0.50;;;17.60;1.00;;;;;;5014953;28;20779;-89
2022/05/01 12:53:24;;;;;;;1.73;0.50;;;17.30;1.00;;;;;;5015581;28;20441;-91
2022/05/01 12:55:51;;;;;;;2.57;0.67;;;17.30;1.00;;;;;;5014965;28;20414;-89
2022/05/01 12:58:27;;;;;;;3.43;0.73;;;16.60;1.00;;;;;;5014364;28;20769;-88
2022/05/01 13:00:53;;;;;;;0.80;0.53;;;16.90;1.00;;;;;;5015218;28;20421;-89
2022/05/01 13:03:24;;;;;;;2.23;0.83;;;17.60;1.00;;;;;;5015373;28;20422;-89
2022/05/01 13:06:07;;;;;;;1.03;0.57;;;17.80;1.00;;;;;;5015071;28;20533;-89
2022/05/01 13:08:38;;;;;;;0.63;0.30;;;17.40;1.00;;;;;;5014991;28;20429;-90
2022/05/01 13:11:12;;;;;;;1.87;0.50;;;17.20;1.00;;;;;;5014286;28;20461;-90
2022/05/01 13:13:47;;;;;;;2.17;0.60;;;17.60;1.00;;;;;;5014716;28;20915;-90
2022/05/01 13:16:14;;;;;;;1.50;0.40;;;17.40;1.00;;;;;;5012734;28;20486;-89
2022/05/01 13:18:39;;;;;;;3.97;0.70;;;17.60;1.00;;;;;;5013739;28;20460;-90
2022/05/01 13:21:05;;;;;;;0.90;0.60;;;17.90;1.00;;;;;;5012567;28;20803;-89
2022/05/01 13:23:31;;;;;;;4.00;1.43;;;17.40;1.00;;;;;;5012157;28;20171;-90
2022/05/01 13:25:56;;;;;;;1.40;0.50;;;17.20;1.00;;;;;;5012922;28;20177;-90
2022/05/01 13:28:22;;;;;;;1.57;0.40;;;17.10;1.00;;;;;;5014028;28;20466;-90
2022/05/01 13:30:48;;;;;;;1.57;0.50;;;17.50;1.00;;;;;;5013915;28;20234;-90